Time;durP1;ratioP1;P1;durP2;ratioP2;P2;SDS_P1;SDS_P2;PMS_P1;PMS_P2;Temp;Humidity;BMP_temperature;BMP_pressure;BME280_temperature;BME280_humidity;BME280_pressure;Samples;Min_cycle;Max_cycle;Signal;HPM_P1;HPM_P2
2022/12/04 00:00:04;;;;;;;36.63;15.90;;;3.40;99.90;;;;;;4883881;29;20141;-63
2022/12/04 00:02:30;;;;;;;34.72;13.88;;;3.40;99.90;;;;;;4885290;29;20037;-65
2022/12/04 00:04:55;;;;;;;35.47;14.43;;;3.40;99.90;;;;;;4885517;29;20516;-62
2022/12/04 00:07:21;;;;;;;36.20;15.73;;;3.50;99.90;;;;;;4885504;29;20100;-65
2022/12/04 00:09:46;;;;;;;36.70;16.73;;;3.40;99.90;;;;;;4886541;29;20111;-64
2022/12/04 00:12:12;;;;;;;35.03;14.37;;;3.40;99.90;;;;;;4880589;29;20043;-64
2022/12/04 00:14:37;;;;;;;34.57;15.60;;;3.50;99.90;;;;;;4880712;29;20071;-64
2022/12/04 00:17:03;;;;;;;37.20;16.23;;;3.40;99.90;;;;;;4880973;29;20060;-64
2022/12/04 00:19:28;;;;;;;35.57;15.13;;;3.40;99.90;;;;;;4880860;29;20054;-64
2022/12/04 00:21:54;;;;;;;37.33;16.53;;;3.40;99.90;;;;;;4880244;29;20048;-64
2022/12/04 00:24:19;;;;;;;34.30;14.60;;;3.40;99.90;;;;;;4879916;29;20126;-64
2022/12/04 00:26:45;;;;;;;38.93;15.50;;;3.50;99.90;;;;;;4880035;29;20084;-64
2022/12/04 00:29:12;;;;;;;37.53;15.57;;;3.40;99.90;;;;;;4880136;29;20033;-65
2022/12/04 00:31:38;;;;;;;;;;;3.50;99.90;;;;;;4880466;29;20040;-64
2022/12/04 00:34:04;;;;;;;35.63;15.48;;;3.50;99.90;;;;;;4879920;29;19947;-63
2022/12/04 00:36:30;;;;;;;34.73;14.63;;;3.40;99.90;;;;;;4879024;29;20092;-65
2022/12/04 00:38:58;;;;;;;35.30;15.57;;;3.40;99.90;;;;;;4879940;29;20029;-65
2022/12/04 00:41:25;;;;;;;34.33;14.40;;;3.40;99.90;;;;;;4879870;29;20069;-66
2022/12/04 00:43:51;;;;;;;40.20;17.00;;;3.40;99.90;;;;;;4879877;29;20489;-65
2022/12/04 00:46:17;;;;;;;38.10;16.42;;;3.40;99.90;;;;;;4879918;29;20384;-66
2022/12/04 00:48:43;;;;;;;45.78;17.20;;;3.40;99.90;;;;;;4879751;29;20041;-66
2022/12/04 00:51:14;;;;;;;37.38;15.93;;;3.40;99.90;;;;;;4879898;29;20029;-66
2022/12/04 00:53:41;;;;;;;35.90;15.15;;;3.50;99.90;;;;;;4880041;29;20025;-66
2022/12/04 00:56:10;;;;;;;38.13;15.20;;;3.50;99.90;;;;;;4880138;29;20469;-66
2022/12/04 00:58:35;;;;;;;36.65;15.80;;;3.50;99.90;;;;;;4878617;29;20090;-65
2022/12/04 01:01:03;;;;;;;40.00;17.17;;;3.50;99.90;;;;;;4879404;29;20028;-65
2022/12/04 01:03:29;;;;;;;35.03;15.77;;;3.40;99.90;;;;;;4879210;29;20326;-65
2022/12/04 01:05:54;;;;;;;32.83;13.97;;;3.40;99.90;;;;;;4879916;29;20041;-65
2022/12/04 01:08:20;;;;;;;31.83;14.10;;;3.40;99.90;;;;;;4878803;29;20096;-65
2022/12/04 01:10:46;;;;;;;34.33;14.63;;;3.40;99.90;;;;;;4879390;29;20029;-65
2022/12/04 01:13:11;;;;;;;35.60;15.53;;;3.50;99.90;;;;;;4879128;29;20192;-66
2022/12/04 01:15:38;;;;;;;28.27;13.20;;;3.50;99.90;;;;;;4879826;29;20061;-65
2022/12/04 01:18:04;;;;;;;32.20;14.55;;;3.40;99.90;;;;;;4879255;29;20486;-65
2022/12/04 01:20:29;;;;;;;34.85;14.43;;;3.40;99.90;;;;;;4879051;29;20105;-65
2022/12/04 01:22:55;;;;;;;34.13;14.30;;;3.40;99.90;;;;;;4879427;29;20029;-66
2022/12/04 01:25:20;;;;;;;34.20;14.17;;;3.40;99.90;;;;;;4879328;29;20056;-66
2022/12/04 01:27:46;;;;;;;34.30;14.67;;;3.40;99.90;;;;;;4879431;29;20061;-65
2022/12/04 01:30:12;;;;;;;34.47;14.93;;;3.40;99.90;;;;;;4879380;29;20037;-65
2022/12/04 01:32:37;;;;;;;30.53;14.17;;;3.30;99.90;;;;;;4879320;29;20029;-65
2022/12/04 01:35:03;;;;;;;30.97;13.83;;;3.30;99.90;;;;;;4881795;29;20031;-65
2022/12/04 01:37:30;;;;;;;32.25;14.90;;;3.30;99.90;;;;;;4883502;29;20120;-65
2022/12/04 01:39:56;;;;;;;31.65;14.07;;;3.30;99.90;;;;;;4883133;29;20503;-65
2022/12/04 01:42:22;;;;;;;29.25;12.80;;;3.40;99.90;;;;;;4882962;29;20073;-65
2022/12/04 01:45:25;;;;;;;35.23;14.73;;;3.40;99.90;;;;;;4882910;29;20025;-65
2022/12/04 01:47:54;;;;;;;31.88;15.52;;;3.30;99.90;;;;;;4883131;29;20029;-66
2022/12/04 01:50:20;;;;;;;29.83;13.50;;;3.30;99.90;;;;;;4882746;29;20037;-65
2022/12/04 01:52:45;;;;;;;34.60;14.45;;;3.30;99.90;;;;;;4882825;29;20372;-65
2022/12/04 01:55:11;;;;;;;35.83;14.63;;;3.30;99.90;;;;;;4883648;29;20494;-65
2022/12/04 01:57:37;;;;;;;28.00;13.18;;;3.30;99.90;;;;;;4897573;29;20066;-66
2022/12/04 02:00:12;;;;;;;29.23;13.38;;;3.30;99.90;;;;;;4882665;29;20090;-66
2022/12/04 02:02:44;;;;;;;34.08;15.05;;;3.30;99.90;;;;;;4882440;29;20033;-64
2022/12/04 02:05:13;;;;;;;28.48;13.25;;;3.30;99.90;;;;;;4882498;29;20033;-65
2022/12/04 02:07:40;;;;;;;33.35;14.40;;;3.30;99.90;;;;;;4882896;29;20386;-65
2022/12/04 02:10:07;;;;;;;;;;;3.30;99.90;;;;;;4883517;29;20040;-66
2022/12/04 02:13:01;;;;;;;31.63;13.65;;;3.30;99.90;;;;;;4884404;29;19920;-66
2022/12/04 02:16:00;;;;;;;27.58;13.43;;;3.40;99.90;;;;;;4884577;29;20101;-65
2022/12/04 02:18:45;;;;;;;32.22;13.18;;;3.30;99.90;;;;;;4882304;29;20084;-65
2022/12/04 02:21:31;;;;;;;30.08;13.65;;;3.30;99.90;;;;;;4882543;29;20028;-65
2022/12/04 02:24:20;;;;;;;31.92;13.73;;;3.30;99.90;;;;;;4883762;29;20029;-66
2022/12/04 02:26:52;;;;;;;28.45;12.55;;;3.30;99.90;;;;;;4882299;29;20090;-65
2022/12/04 02:29:36;;;;;;;28.10;13.60;;;3.30;99.90;;;;;;4883531;29;20044;-66
2022/12/04 02:32:18;;;;;;;29.33;14.45;;;3.30;99.90;;;;;;4882856;29;20033;-65
2022/12/04 02:34:54;;;;;;;32.88;14.15;;;3.30;99.90;;;;;;4880768;29;20506;-65
2022/12/04 02:37:36;;;;;;;25.88;13.10;;;3.30;99.90;;;;;;4882345;29;20120;-65
2022/12/04 02:40:24;;;;;;;30.95;14.32;;;3.30;99.90;;;;;;4883372;29;20032;-65
2022/12/04 02:43:00;;;;;;;;;;;3.20;99.90;;;;;;4883339;29;20025;-65
2022/12/04 02:46:12;;;;;;;30.48;13.40;;;3.30;99.90;;;;;;4882143;29;20002;-66
2022/12/04 02:48:41;;;;;;;30.52;13.48;;;3.30;99.90;;;;;;4879339;29;20124;-63
2022/12/04 02:51:12;;;;;;;28.10;12.98;;;3.30;99.90;;;;;;4883122;29;20067;-64
2022/12/04 02:53:43;;;;;;;32.15;14.07;;;3.30;99.90;;;;;;4882187;29;20025;-65
2022/12/04 02:56:13;;;;;;;31.08;13.88;;;3.30;99.90;;;;;;4882184;29;20029;-65
2022/12/04 02:58:45;;;;;;;27.88;13.88;;;3.30;99.90;;;;;;4882174;29;20407;-66
2022/12/04 03:01:22;;;;;;;29.02;13.18;;;3.30;99.90;;;;;;4881741;29;20021;-65
2022/12/04 03:04:23;;;;;;;28.95;13.68;;;3.40;99.90;;;;;;4881896;29;20072;-65
2022/12/04 03:06:54;;;;;;;28.42;12.82;;;3.40;99.90;;;;;;4881927;29;20029;-65
2022/12/04 03:09:25;;;;;;;33.03;14.48;;;3.30;99.90;;;;;;4881602;29;20036;-65
2022/12/04 03:12:00;;;;;;;28.20;13.95;;;3.40;99.90;;;;;;4881372;29;20045;-65
2022/12/04 03:14:33;;;;;;;31.30;13.60;;;3.30;99.90;;;;;;4881706;29;20479;-65
2022/12/04 03:17:07;;;;;;;26.95;13.75;;;3.30;99.90;;;;;;4881883;29;20033;-64
2022/12/04 03:19:48;;;;;;;26.05;13.27;;;3.40;99.90;;;;;;4881063;29;20037;-63
2022/12/04 03:22:17;;;;;;;33.13;13.85;;;3.40;99.90;;;;;;4881601;29;20446;-64
2022/12/04 03:24:54;;;;;;;26.50;13.23;;;3.40;99.90;;;;;;4879834;29;20050;-65
2022/12/04 03:27:32;;;;;;;25.55;12.30;;;3.40;99.90;;;;;;4881254;29;20116;-65
2022/12/04 03:30:17;;;;;;;26.40;13.10;;;3.30;99.90;;;;;;4881108;29;20431;-65
2022/12/04 03:33:15;;;;;;;26.70;12.02;;;3.30;99.90;;;;;;4881623;29;20107;-65
2022/12/04 03:35:51;;;;;;;25.85;11.68;;;3.30;99.90;;;;;;4860159;29;20149;-65
2022/12/04 03:38:40;;;;;;;28.10;12.77;;;3.30;99.90;;;;;;4860608;29;20101;-64
2022/12/04 03:41:35;;;;;;;26.55;12.40;;;3.30;99.90;;;;;;4844726;29;20033;-65
2022/12/04 03:44:29;;;;;;;26.75;12.25;;;3.40;99.90;;;;;;4860484;29;20424;-65
2022/12/04 03:47:12;;;;;;;26.45;12.65;;;3.30;99.90;;;;;;4860614;29;20415;-66
2022/12/04 03:49:57;;;;;;;26.52;12.85;;;3.40;99.90;;;;;;4859894;29;20045;-65
2022/12/04 03:52:28;;;;;;;27.67;12.43;;;3.40;99.90;;;;;;4860767;29;20069;-64
2022/12/04 03:55:05;;;;;;;26.70;12.43;;;3.30;99.90;;;;;;4860371;29;20044;-65
2022/12/04 03:57:33;;;;;;;;;;;3.30;99.90;;;;;;4844625;29;20037;-64
2022/12/04 04:00:08;;;;;;;26.67;11.93;;;3.30;99.90;;;;;;4860491;29;20340;-64
2022/12/04 04:02:40;;;;;;;25.05;12.57;;;3.30;99.90;;;;;;4844290;29;20029;-65
2022/12/04 04:05:09;;;;;;;26.08;12.05;;;3.30;99.90;;;;;;4844326;29;20365;-64
2022/12/04 04:07:51;;;;;;;28.48;12.85;;;3.30;99.90;;;;;;4859538;29;20069;-65
2022/12/04 04:10:20;;;;;;;27.30;12.70;;;3.30;99.90;;;;;;4859630;29;20057;-65
2022/12/04 04:24:14;;;;;;;27.13;12.57;;;3.30;99.90;;;;;;4880386;29;20032;-65
2022/12/04 04:26:46;;;;;;;23.48;12.02;;;3.30;99.90;;;;;;4880189;29;20454;-64
2022/12/04 04:29:12;;;;;;;24.33;11.98;;;3.30;99.90;;;;;;4879888;29;20056;-64
2022/12/04 04:31:57;;;;;;;28.25;13.18;;;3.30;99.90;;;;;;4879739;29;20104;-64
2022/12/04 04:34:56;;;;;;;26.90;13.45;;;3.40;99.90;;;;;;4880002;29;20064;-64
2022/12/04 04:38:02;;;;;;;29.70;13.30;;;3.40;99.90;;;;;;4880046;29;20479;-64
2022/12/04 04:40:39;;;;;;;26.77;13.25;;;3.40;99.90;;;;;;4863199;29;20181;-64
2022/12/04 04:43:18;;;;;;;30.10;14.43;;;3.40;99.90;;;;;;4879735;29;20471;-64
2022/12/04 04:45:54;;;;;;;25.05;12.88;;;3.40;99.90;;;;;;4879905;29;20069;-64
2022/12/04 04:48:26;;;;;;;26.95;12.35;;;3.40;99.90;;;;;;4878283;29;20057;-65
2022/12/04 04:50:53;;;;;;;26.85;12.57;;;3.50;99.90;;;;;;4879454;29;20025;-64
2022/12/04 04:53:22;;;;;;;28.17;13.73;;;3.50;99.90;;;;;;4879446;29;20040;-64
2022/12/04 04:55:48;;;;;;;27.02;12.90;;;3.40;99.90;;;;;;4879402;29;20499;-64
2022/12/04 04:58:17;;;;;;;25.08;12.15;;;3.50;99.90;;;;;;4879427;29;20021;-64
2022/12/04 05:01:04;;;;;;;27.27;12.98;;;3.40;99.90;;;;;;4879594;29;20029;-64
2022/12/04 05:03:30;;;;;;;24.73;12.43;;;3.40;99.90;;;;;;4879666;29;20033;-64
2022/12/04 05:05:56;;;;;;;26.42;12.77;;;3.50;99.90;;;;;;4879266;29;20510;-64
2022/12/04 05:08:22;;;;;;;25.20;12.43;;;3.50;99.90;;;;;;4879306;29;20037;-65
2022/12/04 05:10:47;;;;;;;25.83;12.70;;;3.50;99.90;;;;;;4894301;29;20032;-65
2022/12/04 05:13:15;;;;;;;25.27;11.60;;;3.50;99.90;;;;;;4879500;29;20033;-65
2022/12/04 05:15:41;;;;;;;24.27;11.52;;;3.50;99.90;;;;;;4879391;29;20106;-64
2022/12/04 05:18:07;;;;;;;24.85;12.20;;;3.50;99.90;;;;;;4877848;29;20029;-64
2022/12/04 05:20:33;;;;;;;27.88;12.95;;;3.50;99.90;;;;;;4878900;29;20029;-64
2022/12/04 05:22:58;;;;;;;24.92;11.82;;;3.50;99.90;;;;;;4879133;29;20502;-64
2022/12/04 05:25:24;;;;;;;24.83;11.73;;;3.50;99.90;;;;;;4879390;29;20135;-64
2022/12/04 05:27:50;;;;;;;23.88;11.82;;;3.50;99.90;;;;;;4879491;29;20036;-64
2022/12/04 05:30:16;;;;;;;26.67;12.27;;;3.50;99.90;;;;;;4879364;29;20030;-65
2022/12/04 05:32:41;;;;;;;25.42;12.73;;;3.50;99.90;;;;;;4879439;29;20112;-65
2022/12/04 05:35:07;;;;;;;25.17;12.50;;;3.50;99.90;;;;;;4879372;29;20096;-64
2022/12/04 05:37:38;;;;;;;26.77;12.52;;;3.60;99.90;;;;;;4879778;29;20029;-65
2022/12/04 05:40:05;;;;;;;22.45;11.00;;;3.60;99.90;;;;;;4878562;29;20100;-65
2022/12/04 05:42:31;;;;;;;22.80;11.10;;;3.60;99.90;;;;;;4880031;29;20025;-65
2022/12/04 05:44:56;;;;;;;25.83;11.73;;;3.60;99.90;;;;;;4879647;29;20036;-65
2022/12/04 05:47:22;;;;;;;25.07;11.97;;;3.60;99.90;;;;;;4879893;29;20522;-65
2022/12/04 05:49:47;;;;;;;23.67;11.07;;;3.60;99.90;;;;;;4878995;29;20129;-65
2022/12/04 05:52:13;;;;;;;23.50;11.33;;;3.50;99.90;;;;;;4879253;29;20069;-65
2022/12/04 05:54:39;;;;;;;25.30;12.23;;;3.60;99.90;;;;;;4879747;29;20033;-65
2022/12/04 05:57:04;;;;;;;23.48;10.98;;;3.60;99.90;;;;;;4878136;29;20056;-66
2022/12/04 05:59:30;;;;;;;23.13;11.27;;;3.60;99.90;;;;;;4878853;29;20081;-65
2022/12/04 06:01:56;;;;;;;24.03;11.47;;;3.60;99.90;;;;;;4879127;29;20092;-63
2022/12/04 06:04:21;;;;;;;23.23;11.80;;;3.60;99.90;;;;;;4878441;29;20471;-66
2022/12/04 06:06:47;;;;;;;20.37;10.50;;;3.60;99.90;;;;;;4880238;29;20112;-65
2022/12/04 06:09:13;;;;;;;26.83;12.15;;;3.60;99.90;;;;;;4879348;29;20040;-65
2022/12/04 06:11:40;;;;;;;29.70;10.93;;;3.50;99.90;;;;;;4878952;29;20136;-65
2022/12/04 06:14:10;;;;;;;24.10;11.25;;;3.50;99.90;;;;;;4879551;29;20036;-65
2022/12/04 06:16:38;;;;;;;22.33;10.80;;;3.50;99.90;;;;;;4879316;29;20021;-66
2022/12/04 06:19:12;;;;;;;23.42;11.00;;;3.50;99.90;;;;;;4879027;29;20040;-66
2022/12/04 06:21:39;;;;;;;22.58;11.27;;;3.60;99.90;;;;;;4880763;29;20025;-65
2022/12/04 06:24:06;;;;;;;25.00;12.18;;;3.60;99.90;;;;;;4882531;29;20029;-65
2022/12/04 06:26:32;;;;;;;26.60;12.82;;;3.60;99.90;;;;;;4882580;29;20025;-65
2022/12/04 06:28:58;;;;;;;25.57;11.43;;;3.60;99.90;;;;;;4882246;29;20123;-65
2022/12/04 06:31:25;;;;;;;;;;;3.60;99.90;;;;;;4882400;29;20490;-65
2022/12/04 06:33:53;;;;;;;25.63;12.10;;;3.60;99.90;;;;;;4881908;29;19915;-65
2022/12/04 06:36:20;;;;;;;28.70;12.88;;;3.60;99.90;;;;;;4881631;29;20065;-65
2022/12/04 06:38:47;;;;;;;25.52;11.88;;;3.60;99.90;;;;;;4881877;29;20096;-65
2022/12/04 06:41:15;;;;;;;23.95;11.80;;;3.60;99.90;;;;;;4881595;29;20547;-65
2022/12/04 06:43:41;;;;;;;25.30;11.38;;;3.60;99.90;;;;;;4881524;29;20063;-65
2022/12/04 06:46:12;;;;;;;26.20;11.48;;;3.60;99.90;;;;;;4881715;29;20052;-65
2022/12/04 06:48:39;;;;;;;23.33;10.80;;;3.60;99.90;;;;;;4882005;29;20061;-65
2022/12/04 06:51:16;;;;;;;26.80;11.60;;;3.60;99.90;;;;;;4881360;29;20044;-64
2022/12/04 06:53:42;;;;;;;;;;;3.60;99.90;;;;;;4914013;23;20397;-65
2022/12/04 06:56:11;;;;;;;26.63;11.65;;;3.70;99.90;;;;;;4918817;29;19923;-64
2022/12/04 06:58:37;;;;;;;23.27;12.18;;;3.60;99.90;;;;;;4919632;29;20059;-64
2022/12/04 07:01:09;;;;;;;23.05;10.85;;;3.60;99.90;;;;;;4919457;29;20028;-64
2022/12/04 07:03:35;;;;;;;23.30;10.95;;;3.60;99.90;;;;;;4913218;29;20029;-65
2022/12/04 07:06:20;;;;;;;24.60;10.98;;;3.60;99.90;;;;;;4885937;29;20033;-65
2022/12/04 07:08:50;;;;;;;23.60;11.48;;;3.60;99.90;;;;;;4900668;29;20064;-65
2022/12/04 07:11:16;;;;;;;26.15;12.20;;;3.60;99.90;;;;;;4898618;29;20478;-65
2022/12/04 07:13:42;;;;;;;27.00;12.43;;;3.60;99.90;;;;;;4901010;29;20032;-65
2022/12/04 07:16:12;;;;;;;24.85;11.82;;;3.60;99.90;;;;;;4902446;29;20036;-65
2022/12/04 07:18:38;;;;;;;28.85;13.20;;;3.60;99.90;;;;;;4903069;29;20119;-67
2022/12/04 07:21:09;;;;;;;26.43;11.10;;;3.70;99.90;;;;;;4901982;29;20081;-65
2022/12/04 07:23:35;;;;;;;24.83;11.68;;;3.60;99.90;;;;;;4899840;29;20328;-66
2022/12/04 07:26:11;;;;;;;27.42;12.00;;;3.70;99.90;;;;;;4900353;29;20036;-65
2022/12/04 07:28:38;;;;;;;25.02;11.27;;;3.70;99.90;;;;;;4899972;29;20040;-66
2022/12/04 07:31:08;;;;;;;;;;;3.80;99.90;;;;;;4900465;29;20121;-65
2022/12/04 07:33:34;;;;;;;23.55;10.63;;;3.80;99.90;;;;;;4899823;29;19919;-66
2022/12/04 07:36:01;;;;;;;24.55;11.48;;;3.80;99.90;;;;;;4899934;29;20081;-65
2022/12/04 07:38:28;;;;;;;29.45;11.27;;;3.70;99.90;;;;;;4899609;29;20033;-65
2022/12/04 07:40:58;;;;;;;27.45;12.13;;;3.80;99.90;;;;;;4899989;29;20029;-65
2022/12/04 07:43:25;;;;;;;23.90;10.75;;;3.70;99.90;;;;;;4899757;29;20494;-64
2022/12/04 07:45:51;;;;;;;26.15;10.77;;;3.70;99.90;;;;;;4898429;29;20056;-65
2022/12/04 07:48:17;;;;;;;23.33;11.20;;;3.70;99.90;;;;;;4899319;29;20056;-67
2022/12/04 07:50:43;;;;;;;22.70;10.97;;;3.70;99.90;;;;;;4900728;29;20027;-66
2022/12/04 07:53:08;;;;;;;27.77;10.93;;;3.70;99.90;;;;;;4901914;29;20025;-67
2022/12/04 07:55:34;;;;;;;25.40;10.67;;;3.80;99.90;;;;;;4900497;29;20083;-66
2022/12/04 07:57:59;;;;;;;26.50;12.00;;;3.80;99.90;;;;;;4883959;29;20031;-66
2022/12/04 08:00:25;;;;;;;28.33;11.23;;;3.80;99.90;;;;;;4887581;29;20487;-67
2022/12/04 08:02:51;;;;;;;23.63;11.00;;;3.90;99.90;;;;;;4881186;29;20118;-66
2022/12/04 08:05:16;;;;;;;24.33;12.13;;;3.90;99.90;;;;;;4897967;29;20025;-67
2022/12/04 08:07:42;;;;;;;24.95;11.65;;;3.90;99.90;;;;;;4899402;29;20024;-66
2022/12/04 08:10:08;;;;;;;24.13;11.13;;;3.90;99.90;;;;;;4899000;29;20051;-66
2022/12/04 08:12:34;;;;;;;22.42;10.70;;;3.90;99.90;;;;;;4899454;29;20505;-66
2022/12/04 08:15:00;;;;;;;23.98;11.13;;;3.90;99.90;;;;;;4898484;29;20025;-66
2022/12/04 08:17:26;;;;;;;25.75;12.18;;;3.90;99.90;;;;;;4899038;29;20125;-66
2022/12/04 08:19:51;;;;;;;24.05;11.52;;;3.90;99.90;;;;;;4897676;29;20524;-66
2022/12/04 08:22:17;;;;;;;22.13;11.00;;;3.90;99.90;;;;;;4899157;29;20037;-67
2022/12/04 08:24:43;;;;;;;24.67;11.60;;;3.90;99.90;;;;;;4898698;29;20032;-66
2022/12/04 08:27:08;;;;;;;26.23;11.40;;;3.90;99.90;;;;;;4893085;29;20032;-66
2022/12/04 08:29:34;;;;;;;21.20;10.27;;;3.90;99.90;;;;;;4880771;29;20559;-66
2022/12/04 08:31:59;;;;;;;25.93;12.03;;;3.90;99.90;;;;;;4896935;29;20064;-67
2022/12/04 08:34:25;;;;;;;25.57;11.73;;;3.90;99.90;;;;;;4899394;29;20096;-67
2022/12/04 08:36:51;;;;;;;25.23;11.77;;;3.90;99.90;;;;;;4898966;29;20042;-66
2022/12/04 08:39:16;;;;;;;25.67;11.23;;;3.90;99.90;;;;;;4898338;29;20367;-67
2022/12/04 08:41:42;;;;;;;22.00;10.43;;;4.00;99.90;;;;;;4899311;29;20083;-76
2022/12/04 08:44:08;;;;;;;22.53;11.17;;;4.00;99.90;;;;;;4896430;29;20096;-64
2022/12/04 08:46:34;;;;;;;20.80;10.93;;;4.10;99.90;;;;;;4897484;29;20025;-69
2022/12/04 08:49:01;;;;;;;24.15;10.23;;;4.00;99.90;;;;;;4896926;29;20045;-66
2022/12/04 08:51:29;;;;;;;22.27;10.27;;;4.10;99.90;;;;;;4897139;29;20119;-67
2022/12/04 08:53:58;;;;;;;26.02;11.50;;;4.10;99.90;;;;;;4890974;29;20387;-69
2022/12/04 08:56:26;;;;;;;26.02;12.60;;;4.00;99.90;;;;;;4894160;29;20489;-74
2022/12/04 08:58:52;;;;;;;24.73;11.20;;;4.00;99.90;;;;;;4905074;29;20050;-70
2022/12/04 09:01:18;;;;;;;23.70;12.00;;;4.00;99.90;;;;;;4901524;29;20113;-71
2022/12/04 09:03:45;;;;;;;21.98;10.55;;;4.00;99.90;;;;;;4883745;29;20136;-75
2022/12/04 09:06:13;;;;;;;23.05;11.30;;;4.00;99.90;;;;;;4878575;29;20029;-76
2022/12/04 09:08:40;;;;;;;25.88;11.32;;;4.10;99.90;;;;;;4878992;29;20037;-71
2022/12/04 09:11:12;;;;;;;25.45;11.40;;;4.10;99.90;;;;;;4896613;29;20056;-68
2022/12/04 09:13:39;;;;;;;27.77;12.80;;;4.10;99.90;;;;;;4898194;29;20024;-68
2022/12/04 09:16:11;;;;;;;22.73;10.68;;;4.10;99.90;;;;;;4897240;29;20060;-67
2022/12/04 09:18:37;;;;;;;23.67;11.52;;;4.20;99.90;;;;;;4898477;29;20233;-67
2022/12/04 09:21:06;;;;;;;25.95;11.00;;;4.20;99.90;;;;;;4898436;29;20020;-70
2022/12/04 09:23:33;;;;;;;24.38;11.80;;;4.20;99.90;;;;;;4898743;29;20024;-70
2022/12/04 09:25:59;;;;;;;;;;;4.20;99.90;;;;;;4901553;29;20060;-71
2022/12/04 09:28:26;;;;;;;25.17;11.38;;;4.10;99.90;;;;;;4913045;29;20284;-69
2022/12/04 09:31:00;;;;;;;27.33;13.02;;;4.10;99.90;;;;;;4896981;29;20553;-68
2022/12/04 09:33:26;;;;;;;27.38;12.80;;;4.10;99.90;;;;;;4882067;29;20041;-66
2022/12/04 09:35:52;;;;;;;24.60;11.85;;;4.10;99.90;;;;;;4897067;29;20371;-68
2022/12/04 09:38:17;;;;;;;24.30;11.27;;;4.10;99.90;;;;;;4898289;29;20033;-71
2022/12/04 09:41:03;;;;;;;25.93;11.80;;;4.10;99.90;;;;;;4898146;29;20040;-72
2022/12/04 09:43:40;;;;;;;26.70;12.07;;;4.10;99.90;;;;;;4897207;29;20483;-67
2022/12/04 09:46:13;;;;;;;25.13;12.13;;;4.10;99.90;;;;;;4912752;29;20028;-73
2022/12/04 09:48:42;;;;;;;25.02;11.20;;;4.10;99.90;;;;;;4897235;29;20123;-70
2022/12/04 09:51:17;;;;;;;27.10;12.43;;;4.10;99.90;;;;;;4897101;29;20031;-71
2022/12/04 09:53:52;;;;;;;25.42;12.45;;;4.20;99.90;;;;;;4896598;29;20044;-69
2022/12/04 09:56:19;;;;;;;25.52;11.95;;;4.20;99.90;;;;;;4899827;29;20039;-72
2022/12/04 09:58:58;;;;;;;27.40;12.57;;;4.10;99.90;;;;;;4900688;29;20486;-65
2022/12/04 10:01:28;;;;;;;25.52;12.82;;;4.20;99.90;;;;;;4901301;29;20025;-65
2022/12/04 10:03:54;;;;;;;27.10;12.68;;;4.10;99.90;;;;;;4899872;29;20478;-67
2022/12/04 10:06:26;;;;;;;28.88;13.30;;;4.10;99.90;;;;;;4897482;29;20119;-70
2022/12/04 10:09:15;;;;;;;31.10;12.98;;;4.10;99.90;;;;;;4889166;29;20494;-66
2022/12/04 10:12:09;;;;;;;26.23;12.55;;;4.10;99.90;;;;;;4883305;29;20037;-66
2022/12/04 10:14:53;;;;;;;24.45;12.55;;;4.10;99.90;;;;;;4883229;29;20418;-66
2022/12/04 10:17:36;;;;;;;23.13;12.15;;;4.10;99.90;;;;;;4899706;29;20435;-66
2022/12/04 10:20:20;;;;;;;26.27;13.30;;;4.10;99.90;;;;;;4901886;29;20044;-70
2022/12/04 10:22:59;;;;;;;29.63;14.43;;;4.10;99.90;;;;;;4900866;29;20052;-70
2022/12/04 10:25:27;;;;;;;26.00;12.70;;;4.10;99.90;;;;;;4900448;29;20027;-70
2022/12/04 10:27:56;;;;;;;29.17;13.40;;;4.10;99.90;;;;;;4899488;29;20069;-72
2022/12/04 10:30:25;;;;;;;26.08;13.10;;;4.20;99.90;;;;;;4900910;29;20044;-68
2022/12/04 10:33:02;;;;;;;30.35;13.55;;;4.30;99.90;;;;;;4885130;29;20025;-73
2022/12/04 10:35:30;;;;;;;27.70;12.48;;;4.30;99.90;;;;;;4883993;29;20055;-69
2022/12/04 10:38:03;;;;;;;28.10;13.40;;;4.40;99.90;;;;;;4897408;29;20041;-66
2022/12/04 10:40:50;;;;;;;26.25;13.10;;;4.30;99.90;;;;;;4899655;29;20035;-67
2022/12/04 10:43:35;;;;;;;28.13;13.43;;;4.30;99.90;;;;;;4912642;29;20029;-68
2022/12/04 10:46:00;;;;;;;28.30;12.70;;;4.20;99.90;;;;;;4896487;29;20039;-75
2022/12/04 10:48:36;;;;;;;28.25;12.45;;;4.20;99.90;;;;;;4901902;29;20029;-71
2022/12/04 10:51:01;;;;;;;25.83;12.20;;;4.20;99.90;;;;;;4903618;29;20085;-73
2022/12/04 10:53:33;;;;;;;29.17;14.17;;;4.20;99.90;;;;;;4910020;29;20036;-75
2022/12/04 10:56:14;;;;;;;28.70;13.18;;;4.30;99.90;;;;;;4908709;29;20053;-77
2022/12/04 10:58:39;;;;;;;28.05;13.27;;;4.20;99.90;;;;;;4898075;29;20064;-68
2022/12/04 11:01:10;;;;;;;29.20;12.30;;;4.30;99.90;;;;;;4883989;29;20025;-72
2022/12/04 11:03:35;;;;;;;29.58;13.02;;;4.30;99.90;;;;;;4897536;29;20064;-70
2022/12/04 11:06:04;;;;;;;28.47;15.13;;;4.30;99.90;;;;;;4882111;29;20033;-71
2022/12/04 11:08:48;;;;;;;29.35;13.95;;;4.30;99.90;;;;;;4889944;29;20020;-70
2022/12/04 11:11:21;;;;;;;29.33;12.90;;;4.30;99.90;;;;;;4903214;29;20035;-69
2022/12/04 11:13:46;;;;;;;26.83;12.93;;;4.40;99.90;;;;;;4901932;29;20025;-76
2022/12/04 11:16:33;;;;;;;25.40;12.37;;;4.40;99.90;;;;;;4904775;29;20139;-72
2022/12/04 11:18:58;;;;;;;28.60;13.18;;;4.40;99.90;;;;;;4900999;29;20342;-67
2022/12/04 11:21:28;;;;;;;27.83;13.60;;;4.30;99.90;;;;;;4900353;29;20029;-66
2022/12/04 11:23:54;;;;;;;25.60;12.68;;;4.20;99.90;;;;;;4900527;29;20080;-67
2022/12/04 11:26:40;;;;;;;31.45;13.85;;;4.20;99.90;;;;;;4900405;29;20438;-66
2022/12/04 11:29:11;;;;;;;25.98;13.60;;;4.20;99.90;;;;;;4899952;29;20039;-71
2022/12/04 11:31:36;;;;;;;33.10;13.32;;;4.30;99.90;;;;;;4901165;29;20032;-68
2022/12/04 11:34:06;;;;;;;27.93;13.53;;;4.20;99.90;;;;;;4899194;29;20065;-67
2022/12/04 11:36:42;;;;;;;28.95;13.80;;;4.20;99.90;;;;;;4899976;29;20033;-67
2022/12/04 11:39:17;;;;;;;25.50;12.38;;;4.20;99.90;;;;;;4902308;29;20056;-67
2022/12/04 11:41:42;;;;;;;27.60;13.95;;;4.30;99.90;;;;;;4901575;29;20482;-66
2022/12/04 11:44:30;;;;;;;26.13;13.00;;;4.30;99.90;;;;;;4903920;29;20112;-66
2022/12/04 11:47:00;;;;;;;24.38;11.77;;;4.30;99.90;;;;;;4903309;29;20037;-76
2022/12/04 11:49:27;;;;;;;24.98;11.35;;;4.30;99.90;;;;;;4907462;29;20111;-66
2022/12/04 11:52:01;;;;;;;25.80;11.73;;;4.30;99.90;;;;;;4902395;29;20112;-76
2022/12/04 11:54:47;;;;;;;25.17;12.02;;;4.30;99.90;;;;;;4902103;29;20124;-72
2022/12/04 11:57:31;;;;;;;29.55;12.82;;;4.30;99.90;;;;;;4903448;29;20093;-70
2022/12/04 12:00:08;;;;;;;25.65;11.30;;;4.30;99.90;;;;;;4902005;29;20035;-74
2022/12/04 12:02:50;;;;;;;25.77;12.52;;;4.30;99.90;;;;;;4896802;29;20036;-76
2022/12/04 12:05:34;;;;;;;29.15;11.80;;;4.30;99.90;;;;;;4894159;29;20513;-74
2022/12/04 12:08:36;;;;;;;28.05;12.90;;;4.30;99.90;;;;;;4906415;29;20036;-63
2022/12/04 12:11:39;;;;;;;27.65;12.20;;;4.20;99.90;;;;;;4900355;29;20032;-77
2022/12/04 12:14:16;;;;;;;27.88;13.20;;;4.30;99.90;;;;;;4922796;29;20061;-75
2022/12/04 12:16:50;;;;;;;30.63;13.30;;;4.30;99.90;;;;;;4891136;29;20087;-72
2022/12/04 12:19:36;;;;;;;30.70;13.45;;;4.30;99.90;;;;;;4899190;29;20072;-72
2022/12/04 12:22:31;;;;;;;28.50;12.30;;;4.30;99.90;;;;;;4905359;29;20029;-74
2022/12/04 12:25:30;;;;;;;27.40;12.70;;;4.30;99.90;;;;;;4900772;29;20049;-74
2022/12/04 12:28:19;;;;;;;26.92;12.38;;;4.30;99.90;;;;;;4901566;29;20029;-73
2022/12/04 12:31:00;;;;;;;27.50;12.52;;;4.30;99.90;;;;;;4898470;29;20033;-76
2022/12/04 12:33:33;;;;;;;29.45;13.10;;;4.40;99.90;;;;;;4896884;29;20069;-74
2022/12/04 12:36:09;;;;;;;29.95;13.15;;;4.30;99.90;;;;;;4904342;29;20031;-75
2022/12/04 12:38:55;;;;;;;32.13;13.75;;;4.30;99.90;;;;;;4910287;29;20061;-75
2022/12/04 12:41:26;;;;;;;31.33;14.48;;;4.40;99.90;;;;;;4908310;29;20056;-73
2022/12/04 12:44:11;;;;;;;26.95;13.80;;;4.30;99.90;;;;;;4896313;29;20064;-72
2022/12/04 12:46:42;;;;;;;30.20;13.43;;;4.40;99.90;;;;;;4899848;29;20060;-75
2022/12/04 12:49:12;;;;;;;27.38;11.65;;;4.40;99.90;;;;;;4897516;29;20029;-67
2022/12/04 12:51:46;;;;;;;29.98;13.93;;;4.40;99.90;;;;;;4901308;29;20036;-70
2022/12/04 12:54:30;;;;;;;29.95;13.88;;;4.30;99.90;;;;;;4916831;29;20124;-73
2022/12/04 12:57:09;;;;;;;27.38;12.55;;;4.30;99.90;;;;;;4888472;29;20075;-72
2022/12/04 12:59:41;;;;;;;26.58;12.60;;;4.40;99.90;;;;;;4881539;29;20036;-71
2022/12/04 13:02:15;;;;;;;26.60;12.35;;;4.30;99.90;;;;;;4899728;29;20036;-66
2022/12/04 13:04:43;;;;;;;28.00;12.95;;;4.30;99.90;;;;;;4894583;29;20031;-72
2022/12/04 13:07:19;;;;;;;31.48;13.45;;;4.30;99.90;;;;;;4900119;29;20024;-72
2022/12/04 13:10:17;;;;;;;29.52;12.55;;;4.30;99.90;;;;;;4899037;29;20513;-72
2022/12/04 13:13:13;;;;;;;30.05;14.05;;;4.40;99.90;;;;;;4900296;29;20035;-71
2022/12/04 13:15:48;;;;;;;27.77;12.52;;;4.40;99.90;;;;;;4899258;29;20029;-74